Time;durP1;ratioP1;P1;durP2;ratioP2;P2;SDS_P1;SDS_P2;PMS_P1;PMS_P2;Temp;Humidity;BMP_temperature;BMP_pressure;BME280_temperature;BME280_humidity;BME280_pressure;Samples;Min_cycle;Max_cycle;Signal;HPM_P1;HPM_P2
2023/02/05 00:03:25;;;;;;;1.83;1.25;;;-0.70;99.90;;;;;;8209944;28;20031;-79
2023/02/05 00:07:25;;;;;;;1.80;1.35;;;-0.60;99.90;;;;;;8228706;28;20037;-80
2023/02/05 00:11:26;;;;;;;2.17;1.20;;;-0.70;99.90;;;;;;8228783;28;20030;-79
2023/02/05 00:15:27;;;;;;;1.77;1.25;;;-0.40;99.90;;;;;;8218387;28;20106;-80
2023/02/05 00:19:27;;;;;;;1.90;1.23;;;-0.70;99.90;;;;;;8231624;28;20046;-79
2023/02/05 00:23:28;;;;;;;4.35;1.65;;;-1.10;99.90;;;;;;8231681;28;20146;-80
2023/02/05 00:27:28;;;;;;;4.85;1.83;;;-1.30;99.90;;;;;;8217945;28;20533;-79
2023/02/05 00:31:29;;;;;;;2.35;1.27;;;-1.50;99.90;;;;;;8229079;28;20029;-79
2023/02/05 00:35:29;;;;;;;1.55;1.10;;;-1.60;99.90;;;;;;8217846;28;20019;-80
2023/02/05 00:39:30;;;;;;;6.15;1.95;;;-1.60;99.90;;;;;;8216269;28;20037;-79
2023/02/05 00:43:31;;;;;;;6.30;2.10;;;-1.60;99.90;;;;;;8227586;28;20045;-79
2023/02/05 00:47:31;;;;;;;5.78;3.30;;;-1.70;99.90;;;;;;8239532;28;20039;-78
2023/02/05 00:51:32;;;;;;;5.82;2.65;;;-1.80;99.90;;;;;;8213848;28;20046;-80
2023/02/05 00:55:32;;;;;;;4.40;2.30;;;-1.80;99.90;;;;;;8210527;28;20403;-80
2023/02/05 00:59:33;;;;;;;3.35;1.58;;;-1.80;99.90;;;;;;8214199;28;20030;-80
2023/02/05 01:03:33;;;;;;;5.53;2.35;;;-1.80;99.90;;;;;;8220943;28;20512;-80
2023/02/05 01:07:34;;;;;;;5.63;1.90;;;-1.90;99.90;;;;;;8213882;28;20407;-80
2023/02/05 01:11:34;;;;;;;4.00;1.70;;;-1.90;99.90;;;;;;8209445;28;20423;-80
2023/02/05 01:15:35;;;;;;;1.98;1.08;;;-1.90;99.90;;;;;;8218617;28;20015;-80
2023/02/05 01:19:36;;;;;;;3.85;1.73;;;-1.70;99.90;;;;;;8222218;28;20391;-80
2023/02/05 01:23:36;;;;;;;4.57;1.58;;;-1.60;99.90;;;;;;8214958;28;20023;-80
2023/02/05 01:27:37;;;;;;;3.92;2.08;;;-1.70;99.90;;;;;;8216541;28;20034;-80
2023/02/05 01:31:37;;;;;;;3.75;2.00;;;-2.00;99.90;;;;;;8209204;28;20063;-80
2023/02/05 01:35:41;;;;;;;5.80;3.58;;;-2.10;99.90;;;;;;8217498;28;20019;-80
2023/02/05 01:39:41;;;;;;;5.65;2.45;;;-2.20;99.90;;;;;;8206344;28;20090;-80
2023/02/05 01:43:42;;;;;;;6.47;2.40;;;-2.20;99.90;;;;;;8218581;28;20034;-80
2023/02/05 01:47:42;;;;;;;6.43;3.15;;;-2.30;99.90;;;;;;8217436;28;20035;-80
2023/02/05 01:51:44;;;;;;;7.85;3.53;;;-2.30;99.90;;;;;;8218251;28;20560;-80
2023/02/05 01:55:53;;;;;;;5.68;2.38;;;-2.50;99.90;;;;;;8205528;28;20019;-80
2023/02/05 01:59:54;;;;;;;;;;;-2.60;99.90;;;;;;8210384;28;20027;-80
2023/02/05 02:03:58;;;;;;;3.13;2.08;;;-2.60;99.90;;;;;;8205570;28;20019;-80
2023/02/05 02:07:59;;;;;;;3.15;1.75;;;-2.50;99.90;;;;;;8216872;28;20407;-80
2023/02/05 02:12:00;;;;;;;4.13;2.30;;;-2.60;99.90;;;;;;8213179;28;20023;-80
2023/02/05 02:16:01;;;;;;;4.80;2.17;;;-2.60;99.90;;;;;;8216275;28;20019;-80
2023/02/05 02:20:09;;;;;;;3.25;1.92;;;-2.50;99.90;;;;;;8216952;28;20046;-80
2023/02/05 02:24:41;;;;;;;2.05;1.30;;;-2.50;99.90;;;;;;8225647;28;20023;-80
2023/02/05 02:28:50;;;;;;;2.80;1.85;;;-2.20;99.90;;;;;;8190877;28;20043;-80
2023/02/05 02:33:05;;;;;;;1.83;1.58;;;-2.30;99.90;;;;;;8217027;28;20586;-80
2023/02/05 02:37:10;;;;;;;2.67;1.77;;;-2.60;99.90;;;;;;8217415;28;20043;-80
2023/02/05 02:41:16;;;;;;;3.15;1.83;;;-2.60;99.90;;;;;;8226469;28;20024;-80
2023/02/05 02:45:20;;;;;;;2.67;1.92;;;-2.70;99.90;;;;;;8217605;28;20034;-81
2023/02/05 02:49:29;;;;;;;3.88;2.22;;;-2.80;99.90;;;;;;8212148;28;20031;-80
2023/02/05 02:53:35;;;;;;;3.65;2.05;;;-2.90;99.90;;;;;;8221456;28;20402;-80
2023/02/05 02:57:39;;;;;;;4.50;1.83;;;-2.60;99.90;;;;;;8225993;28;20063;-80
2023/02/05 03:01:42;;;;;;;4.93;2.50;;;-2.30;99.90;;;;;;8216592;28;20028;-80
2023/02/05 03:05:47;;;;;;;5.13;1.90;;;-2.30;99.90;;;;;;8221261;28;20027;-80
2023/02/05 03:10:06;;;;;;;4.90;2.28;;;-2.50;99.90;;;;;;8216746;28;20027;-80
2023/02/05 03:14:07;;;;;;;3.03;2.13;;;-2.70;99.90;;;;;;8224110;28;20498;-80
2023/02/05 03:18:08;;;;;;;5.10;2.92;;;-2.80;99.90;;;;;;8220143;28;20034;-80
2023/02/05 03:22:09;;;;;;;3.03;1.92;;;-3.10;99.90;;;;;;8231247;28;20089;-79
2023/02/05 03:26:30;;;;;;;5.68;2.45;;;-3.20;99.90;;;;;;8223475;28;20027;-80
2023/02/05 03:30:51;;;;;;;3.80;2.22;;;-3.00;99.90;;;;;;8220178;28;20391;-80
2023/02/05 03:34:58;;;;;;;5.10;1.98;;;-3.00;99.90;;;;;;8222382;28;20027;-79
2023/02/05 03:39:19;;;;;;;5.63;2.10;;;-3.00;99.90;;;;;;8214930;28;20513;-79
2023/02/05 03:43:35;;;;;;;6.72;2.60;;;-3.20;99.90;;;;;;8227958;28;20058;-80
2023/02/05 03:47:57;;;;;;;3.80;2.22;;;-3.30;99.90;;;;;;8231900;28;20086;-80
2023/02/05 03:52:17;;;;;;;4.95;2.72;;;-3.20;99.90;;;;;;8238497;28;20054;-80
2023/02/05 03:56:22;;;;;;;3.80;2.70;;;-3.10;99.90;;;;;;8225913;28;20514;-79
2023/02/05 04:00:24;;;;;;;4.55;2.85;;;-3.10;99.90;;;;;;8217249;28;20035;-80
2023/02/05 04:04:25;;;;;;;4.25;2.20;;;-3.00;99.90;;;;;;8210991;28;20027;-80
2023/02/05 04:08:25;;;;;;;6.13;3.35;;;-3.00;99.90;;;;;;8215027;28;20507;-79
2023/02/05 04:12:26;;;;;;;12.65;3.38;;;-3.00;99.90;;;;;;8294116;23;20561;-80
2023/02/05 04:16:27;;;;;;;8.43;3.30;;;-2.90;99.90;;;;;;8268363;28;20417;-79
2023/02/05 04:20:27;;;;;;;6.93;3.53;;;-2.80;99.90;;;;;;8273362;28;20052;-79
2023/02/05 04:24:28;;;;;;;18.08;2.85;;;-2.60;99.90;;;;;;8269002;28;20425;-79
2023/02/05 04:28:28;;;;;;;17.00;1.92;;;-2.40;99.90;;;;;;8260455;28;20129;-78
2023/02/05 04:32:29;;;;;;;16.27;2.70;;;-2.40;99.90;;;;;;8256237;28;20119;-80
2023/02/05 04:36:30;;;;;;;10.05;2.15;;;-2.20;99.90;;;;;;8251483;28;20034;-79
2023/02/05 04:40:30;;;;;;;24.67;2.65;;;-2.30;99.90;;;;;;8267743;28;20034;-79
2023/02/05 04:44:31;;;;;;;3.50;2.13;;;-2.40;99.90;;;;;;8268992;28;20025;-79
2023/02/05 04:48:31;;;;;;;4.25;2.13;;;-2.50;99.90;;;;;;8280790;28;20122;-78
2023/02/05 04:52:32;;;;;;;3.95;1.90;;;-2.60;99.90;;;;;;8258977;28;20089;-79
2023/02/05 04:56:32;;;;;;;7.32;3.60;;;-2.70;99.90;;;;;;8270814;28;20088;-79
2023/02/05 05:00:33;;;;;;;4.40;2.83;;;-2.80;99.90;;;;;;8265780;28;20449;-79
2023/02/05 05:04:34;;;;;;;7.93;2.78;;;-2.70;99.90;;;;;;8262226;28;20475;-79
2023/02/05 05:08:35;;;;;;;5.15;2.45;;;-3.00;99.90;;;;;;8266897;28;20512;-79
2023/02/05 05:12:36;;;;;;;2.85;1.42;;;-3.30;99.90;;;;;;8274161;28;20505;-79
2023/02/05 05:16:37;;;;;;;8.63;2.67;;;-3.30;99.90;;;;;;8275655;28;20105;-79
2023/02/05 05:20:37;;;;;;;3.30;2.10;;;-3.30;99.90;;;;;;8277372;28;20045;-79
2023/02/05 05:24:38;;;;;;;3.80;2.20;;;-3.50;99.90;;;;;;8252253;28;20039;-79
2023/02/05 05:28:39;;;;;;;3.65;1.95;;;-3.50;99.90;;;;;;8244825;28;20287;-79
2023/02/05 05:32:43;;;;;;;4.85;2.95;;;-3.70;99.90;;;;;;8242993;28;20034;-86
2023/02/05 05:36:44;;;;;;;3.47;2.38;;;-3.70;99.90;;;;;;8247656;28;20040;-86
2023/02/05 05:45:04;;;;;;;2.47;1.75;;;-3.60;99.90;;;;;;8274345;28;20034;-85
2023/02/05 05:49:17;;;;;;;4.70;2.53;;;-3.60;99.90;;;;;;8255850;28;20034;-84
2023/02/05 05:53:27;;;;;;;4.95;2.65;;;-3.60;99.90;;;;;;8259940;28;20030;-79
2023/02/05 05:57:27;;;;;;;3.95;2.08;;;-3.60;99.90;;;;;;8270773;28;20029;-79
2023/02/05 06:01:28;;;;;;;3.85;2.15;;;-3.40;99.90;;;;;;8244561;28;20108;-79
2023/02/05 06:05:29;;;;;;;4.43;2.40;;;-3.40;99.90;;;;;;8261404;28;20026;-79
2023/02/05 06:09:29;;;;;;;3.05;1.77;;;-3.40;99.90;;;;;;8246473;28;20034;-78
2023/02/05 06:13:30;;;;;;;6.32;2.60;;;-3.50;99.90;;;;;;8254409;28;20026;-79
2023/02/05 06:17:31;;;;;;;4.07;2.15;;;-3.40;99.90;;;;;;8281530;28;20077;-79
2023/02/05 06:21:31;;;;;;;3.25;2.28;;;-3.40;99.90;;;;;;8283330;28;20030;-79
2023/02/05 06:25:32;;;;;;;3.55;2.22;;;-3.20;99.90;;;;;;8255857;28;20026;-79
2023/02/05 06:29:32;;;;;;;4.00;2.30;;;-3.20;99.90;;;;;;8258769;28;20058;-80
2023/02/05 06:33:33;;;;;;;5.40;2.63;;;-3.10;99.90;;;;;;8258742;28;20041;-80
2023/02/05 06:37:33;;;;;;;3.55;2.47;;;-3.00;99.90;;;;;;8269570;28;20026;-81
2023/02/05 06:41:36;;;;;;;5.65;3.42;;;-2.80;99.90;;;;;;8258692;28;20027;-82
2023/02/05 06:45:37;;;;;;;4.25;2.50;;;-2.70;99.90;;;;;;8251250;28;20033;-82
2023/02/05 06:49:37;;;;;;;5.53;3.17;;;-2.80;99.90;;;;;;8277142;28;20030;-80
2023/02/05 06:53:38;;;;;;;8.00;4.35;;;-2.70;99.90;;;;;;8258910;28;20085;-80
2023/02/05 06:57:38;;;;;;;5.60;3.35;;;-2.90;99.90;;;;;;8269477;28;20084;-81
2023/02/05 07:01:39;;;;;;;6.13;2.78;;;-3.00;99.90;;;;;;8257796;28;20503;-82
2023/02/05 07:05:39;;;;;;;4.93;2.95;;;-2.80;99.90;;;;;;8249047;28;20074;-83
2023/02/05 07:09:40;;;;;;;5.18;3.10;;;-2.90;99.90;;;;;;8252804;28;20590;-81
2023/02/05 07:13:41;;;;;;;5.05;3.17;;;-2.90;99.90;;;;;;8271781;28;20082;-82
2023/02/05 07:17:41;;;;;;;5.50;2.85;;;-2.60;99.90;;;;;;8260762;28;20440;-83
2023/02/05 07:21:42;;;;;;;7.15;3.42;;;-2.30;99.90;;;;;;8258433;28;20517;-80
2023/02/05 07:25:42;;;;;;;5.45;3.15;;;-2.20;99.90;;;;;;8265263;28;20022;-81
2023/02/05 07:29:43;;;;;;;7.68;4.18;;;-2.30;99.90;;;;;;8281729;28;20092;-82
2023/02/05 07:33:47;;;;;;;10.00;4.90;;;-2.00;99.90;;;;;;8254646;28;20039;-81
2023/02/05 07:37:47;;;;;;;8.80;4.03;;;-1.60;99.90;;;;;;8254805;28;20037;-82
2023/02/05 07:41:50;;;;;;;8.63;4.10;;;-1.30;99.90;;;;;;8264396;28;20474;-82
2023/02/05 07:46:05;;;;;;;9.63;5.57;;;-1.00;99.90;;;;;;8271689;28;20033;-82
2023/02/05 07:50:06;;;;;;;5.55;3.40;;;-0.70;99.90;;;;;;8276903;28;20602;-80
2023/02/05 07:54:08;;;;;;;5.07;3.67;;;-0.30;99.90;;;;;;8258308;28;20026;-81
2023/02/05 07:58:09;;;;;;;6.72;4.32;;;-0.30;99.90;;;;;;8281473;28;20134;-81
2023/02/05 08:02:11;;;;;;;5.68;4.10;;;-0.30;99.90;;;;;;8256905;28;20090;-83
2023/02/05 08:06:14;;;;;;;6.45;4.35;;;-0.30;99.90;;;;;;8259223;28;20042;-83
2023/02/05 08:10:15;;;;;;;9.20;3.20;;;-0.20;99.90;;;;;;8275730;28;20125;-81
2023/02/05 08:14:15;;;;;;;4.88;2.42;;;0.20;99.90;;;;;;8257046;28;20510;-83
2023/02/05 08:18:16;;;;;;;10.05;5.43;;;0.60;99.90;;;;;;8256048;28;20026;-83
2023/02/05 08:22:16;;;;;;;10.88;4.90;;;0.70;99.90;;;;;;8257278;28;20025;-82
2023/02/05 08:26:17;;;;;;;8.52;4.40;;;1.00;99.90;;;;;;8280070;28;20041;-83
2023/02/05 08:30:20;;;;;;;7.10;3.20;;;1.10;99.90;;;;;;8269305;28;20022;-82
2023/02/05 08:34:21;;;;;;;10.57;3.88;;;1.40;99.90;;;;;;8252475;28;20026;-83
2023/02/05 08:38:21;;;;;;;5.68;3.60;;;1.30;99.90;;;;;;8264951;28;20034;-82
2023/02/05 08:42:23;;;;;;;8.70;4.90;;;1.50;99.90;;;;;;8263177;28;20030;-80
2023/02/05 08:46:25;;;;;;;7.70;4.72;;;1.50;99.90;;;;;;8260371;28;20117;-83
2023/02/05 08:50:26;;;;;;;12.02;5.50;;;1.60;99.90;;;;;;8253790;28;20042;-82
2023/02/05 08:54:26;;;;;;;7.68;4.40;;;1.70;99.90;;;;;;8250005;28;20018;-81
2023/02/05 08:58:28;;;;;;;8.90;4.22;;;1.80;99.90;;;;;;8252443;28;20053;-82
2023/02/05 09:02:29;;;;;;;9.32;3.80;;;2.10;99.90;;;;;;8258910;28;20395;-82
2023/02/05 09:06:29;;;;;;;8.88;4.93;;;2.10;99.90;;;;;;8270696;28;20049;-83
2023/02/05 09:10:30;;;;;;;11.23;4.50;;;1.90;99.90;;;;;;8250952;28;20059;-82
2023/02/05 09:14:36;;;;;;;6.45;3.78;;;2.00;99.90;;;;;;8252411;28;20088;-82
2023/02/05 09:18:37;;;;;;;9.32;4.20;;;2.00;99.90;;;;;;8272612;28;20113;-82
2023/02/05 09:22:38;;;;;;;9.65;6.00;;;2.00;99.90;;;;;;8250166;28;20027;-81
2023/02/05 09:26:38;;;;;;;10.18;5.53;;;2.20;99.90;;;;;;8261246;28;20121;-83
2023/02/05 09:30:41;;;;;;;12.43;5.40;;;2.40;99.90;;;;;;8261686;28;20026;-83
2023/02/05 09:34:42;;;;;;;10.60;5.50;;;2.40;99.90;;;;;;8282150;28;20253;-83
2023/02/05 09:38:44;;;;;;;9.23;4.88;;;3.00;99.90;;;;;;8251060;28;20026;-83
2023/02/05 09:42:47;;;;;;;12.88;6.45;;;2.90;99.90;;;;;;8271503;28;20379;-82
2023/02/05 09:47:14;;;;;;;8.63;4.28;;;2.80;99.90;;;;;;8254642;28;20022;-82
2023/02/05 09:51:24;;;;;;;9.45;5.25;;;2.50;99.90;;;;;;8264871;28;20126;-83
2023/02/05 09:55:37;;;;;;;8.77;5.03;;;2.60;99.90;;;;;;8268467;28;20029;-81
2023/02/05 09:59:42;;;;;;;8.00;4.63;;;3.10;99.90;;;;;;8261598;28;20033;-83
2023/02/05 10:03:59;;;;;;;10.95;5.55;;;3.40;99.90;;;;;;8256245;28;20019;-83
2023/02/05 10:08:30;;;;;;;14.07;6.57;;;3.60;99.90;;;;;;8259089;28;20477;-83
2023/02/05 10:12:59;;;;;;;9.30;3.65;;;3.60;99.90;;;;;;8275204;28;20044;-81
2023/02/05 10:17:18;;;;;;;8.93;4.25;;;3.80;99.90;;;;;;8281327;28;20034;-82
2023/02/05 10:21:56;;;;;;;6.30;3.67;;;3.90;99.90;;;;;;8277943;28;20094;-81
2023/02/05 10:26:18;;;;;;;10.85;5.25;;;3.70;99.90;;;;;;8251116;28;20033;-83
2023/02/05 10:30:31;;;;;;;8.95;4.75;;;3.70;99.90;;;;;;8266299;28;20033;-83
2023/02/05 10:34:51;;;;;;;10.45;3.53;;;3.70;99.90;;;;;;8265064;28;20381;-82
2023/02/05 10:38:54;;;;;;;6.97;3.20;;;3.60;99.90;;;;;;8255732;28;20053;-82
2023/02/05 10:43:13;;;;;;;10.25;3.33;;;3.70;99.90;;;;;;8278540;28;20515;-81
2023/02/05 10:47:32;;;;;;;6.07;3.00;;;4.20;99.90;;;;;;8257856;28;20034;-82
2023/02/05 10:51:42;;;;;;;11.18;3.30;;;4.10;99.90;;;;;;8248696;28;20113;-82
2023/02/05 10:55:43;;;;;;;6.60;3.72;;;4.00;99.90;;;;;;8237679;28;20022;-81
2023/02/05 11:00:06;;;;;;;11.48;4.10;;;3.90;99.90;;;;;;8251321;28;20030;-81
2023/02/05 11:04:16;;;;;;;7.65;3.97;;;4.20;99.90;;;;;;8271605;28;20014;-82
2023/02/05 11:08:43;;;;;;;11.82;4.68;;;4.30;99.90;;;;;;8254687;28;20053;-82
2023/02/05 11:12:47;;;;;;;8.43;3.95;;;4.50;99.90;;;;;;8262591;28;20062;-82
2023/02/05 11:16:47;;;;;;;10.93;4.68;;;4.90;99.90;;;;;;8253210;28;20022;-82
2023/02/05 11:20:56;;;;;;;8.55;4.78;;;4.90;99.90;;;;;;8267045;28;20034;-81
2023/02/05 11:25:27;;;;;;;11.20;4.85;;;5.10;99.90;;;;;;8281880;28;20105;-82
2023/02/05 11:29:27;;;;;;;10.02;4.88;;;5.30;99.90;;;;;;8265615;28;20573;-82
2023/02/05 11:33:30;;;;;;;12.77;5.93;;;5.30;99.90;;;;;;8261076;28;20034;-81
2023/02/05 11:37:30;;;;;;;15.55;6.05;;;5.30;99.90;;;;;;8289478;28;20022;-80
2023/02/05 11:41:47;;;;;;;15.32;8.00;;;5.30;99.90;;;;;;8270510;28;20033;-82
2023/02/05 11:45:50;;;;;;;9.43;5.97;;;5.40;99.90;;;;;;8256045;28;20398;-81
2023/02/05 11:49:51;;;;;;;10.57;5.13;;;5.30;99.90;;;;;;8265977;28;20029;-81
2023/02/05 11:53:58;;;;;;;9.63;5.28;;;5.10;99.90;;;;;;8266849;28;20023;-81
2023/02/05 11:58:04;;;;;;;10.23;3.88;;;5.20;99.90;;;;;;8263879;28;20030;-80
2023/02/05 12:02:38;;;;;;;10.18;5.50;;;5.30;99.90;;;;;;8253475;28;20445;-81
2023/02/05 12:06:55;;;;;;;10.80;5.05;;;5.20;99.90;;;;;;8217482;28;20034;-84
2023/02/05 12:11:01;;;;;;;11.18;4.63;;;5.00;99.90;;;;;;8258370;28;20053;-83
2023/02/05 12:15:20;;;;;;;6.90;4.35;;;5.00;99.90;;;;;;8255831;28;20681;-81
2023/02/05 12:19:25;;;;;;;11.13;4.90;;;4.70;99.90;;;;;;8253115;28;20026;-81
2023/02/05 12:23:47;;;;;;;14.75;6.25;;;4.50;99.90;;;;;;8284902;28;20030;-79
2023/02/05 12:28:03;;;;;;;12.73;6.57;;;4.30;99.90;;;;;;8270974;28;20405;-80
2023/02/05 12:32:26;;;;;;;14.88;5.93;;;3.80;99.90;;;;;;8257395;28;20057;-80
2023/02/05 12:36:29;;;;;;;14.57;6.63;;;3.70;99.90;;;;;;8251681;28;20027;-80
2023/02/05 12:40:36;;;;;;;14.98;7.80;;;3.30;99.90;;;;;;8247230;28;20041;-79
2023/02/05 12:44:54;;;;;;;12.90;5.70;;;3.20;99.90;;;;;;8249589;28;20030;-80
2023/02/05 12:49:17;;;;;;;9.50;5.18;;;3.20;99.90;;;;;;8271645;28;20021;-79
2023/02/05 12:53:26;;;;;;;12.35;5.38;;;3.20;99.90;;;;;;8270077;28;20054;-81
2023/02/05 12:57:50;;;;;;;10.63;5.03;;;3.10;99.90;;;;;;8243076;28;20037;-79
2023/02/05 13:01:56;;;;;;;12.95;5.53;;;3.20;99.90;;;;;;8247982;28;20034;-80
2023/02/05 13:06:02;;;;;;;12.32;5.13;;;3.20;99.90;;;;;;8245387;28;20034;-77
2023/02/05 13:10:16;;;;;;;8.30;4.15;;;3.20;99.90;;;;;;8260920;28;20026;-80
2023/02/05 13:14:21;;;;;;;13.18;5.40;;;3.30;99.90;;;;;;8247995;28;20517;-81
2023/02/05 13:18:31;;;;;;;11.43;5.38;;;3.20;99.90;;;;;;8258611;28;20030;-81
2023/02/05 13:31:36;;;;;;;13.70;4.63;;;3.10;99.90;;;;;;8272997;28;20049;-79
2023/02/05 13:36:14;;;;;;;11.25;4.72;;;3.10;99.90;;;;;;8258436;28;20030;-80
2023/02/05 13:40:37;;;;;;;10.98;6.20;;;3.20;99.90;;;;;;8252687;28;20125;-79
2023/02/05 13:44:40;;;;;;;13.02;5.85;;;3.20;99.90;;;;;;8255482;28;20022;-80
2023/02/05 13:48:56;;;;;;;9.68;4.72;;;3.00;99.90;;;;;;8269774;28;20390;-80
2023/02/05 13:53:08;;;;;;;12.48;6.68;;;3.30;99.90;;;;;;8273335;28;20022;-81
2023/02/05 13:57:49;;;;;;;10.88;4.68;;;3.00;99.90;;;;;;8265104;28;20042;-81
2023/02/05 14:01:56;;;;;;;10.65;3.50;;;3.00;99.90;;;;;;8253052;28;20076;-81
2023/02/05 14:05:57;;;;;;;10.02;3.72;;;2.80;99.90;;;;;;8261132;28;20117;-82
2023/02/05 14:09:59;;;;;;;6.72;3.85;;;2.70;99.90;;;;;;8256137;28;20030;-81
2023/02/05 14:14:36;;;;;;;9.07;3.90;;;2.50;99.90;;;;;;8255859;28;20386;-81
2023/02/05 14:18:42;;;;;;;15.13;3.92;;;2.40;99.90;;;;;;8251550;28;20026;-81
2023/02/05 14:22:44;;;;;;;8.13;3.95;;;2.60;99.90;;;;;;8277450;28;20383;-81
2023/02/05 14:26:50;;;;;;;6.38;3.42;;;2.50;99.90;;;;;;8254073;28;20033;-81
2023/02/05 14:30:57;;;;;;;5.57;3.50;;;2.40;99.90;;;;;;8253878;28;20022;-80
2023/02/05 14:35:00;;;;;;;13.93;3.92;;;2.30;99.90;;;;;;8274863;28;20029;-81
2023/02/05 14:39:39;;;;;;;10.52;5.22;;;2.10;99.90;;;;;;8265706;28;20044;-80
2023/02/05 14:43:42;;;;;;;9.20;3.63;;;2.10;99.90;;;;;;8143830;29;20035;-81
2023/02/05 14:47:44;;;;;;;13.90;3.88;;;2.00;99.90;;;;;;8208720;28;20053;-80
2023/02/05 14:51:59;;;;;;;8.80;3.13;;;1.90;99.90;;;;;;8252381;28;20033;-81
2023/02/05 14:56:00;;;;;;;8.35;3.88;;;1.80;99.90;;;;;;8268960;28;20093;-81
2023/02/05 15:00:23;;;;;;;10.80;4.65;;;1.80;99.90;;;;;;8260709;23;20050;-81
2023/02/05 15:04:42;;;;;;;10.73;4.63;;;1.80;99.90;;;;;;8259929;28;20029;-80
2023/02/05 15:08:49;;;;;;;9.48;4.70;;;1.90;99.90;;;;;;8269085;28;20085;-81
2023/02/05 15:13:07;;;;;;;10.77;5.90;;;1.80;99.90;;;;;;8262896;28;20113;-82
2023/02/05 15:17:09;;;;;;;10.20;5.22;;;1.90;99.90;;;;;;8264976;28;20041;-81
2023/02/05 15:21:25;;;;;;;10.02;5.63;;;1.90;99.90;;;;;;8264902;28;20034;-81
2023/02/05 15:25:36;;;;;;;11.38;4.63;;;1.90;99.90;;;;;;8254621;28;20038;-81
2023/02/05 15:29:41;;;;;;;9.82;4.38;;;1.80;99.90;;;;;;8273912;28;20050;-80
2023/02/05 15:34:18;;;;;;;8.50;4.78;;;1.60;99.90;;;;;;8264999;28;20021;-79
2023/02/05 15:38:35;;;;;;;8.18;4.13;;;1.70;99.90;;;;;;8255914;28;20062;-78
2023/02/05 15:42:39;;;;;;;6.60;4.18;;;1.70;99.90;;;;;;8242378;28;20447;-79
2023/02/05 15:46:41;;;;;;;6.97;3.60;;;1.60;99.90;;;;;;8249702;28;20448;-78
2023/02/05 15:50:50;;;;;;;8.32;4.18;;;1.90;99.90;;;;;;8245953;28;20600;-80
2023/02/05 15:54:54;;;;;;;9.63;4.57;;;1.80;99.90;;;;;;8255261;28;20053;-80
2023/02/05 15:59:02;;;;;;;21.08;8.75;;;1.50;99.90;;;;;;8248922;28;20662;-78
2023/02/05 16:03:03;;;;;;;22.85;10.15;;;1.30;99.90;;;;;;8261473;28;20510;-79
2023/02/05 16:07:22;;;;;;;14.80;6.68;;;1.20;99.90;;;;;;8246870;28;20037;-79
2023/02/05 16:11:33;;;;;;;11.43;5.93;;;1.10;99.90;;;;;;8245291;28;20031;-78
2023/02/05 16:15:55;;;;;;;20.15;8.10;;;1.00;99.90;;;;;;8250235;28;20043;-78
2023/02/05 16:20:05;;;;;;;19.55;8.38;;;1.10;99.90;;;;;;8244297;28;20153;-78
2023/02/05 16:24:12;;;;;;;23.63;10.35;;;1.10;99.90;;;;;;8248508;28;20061;-79
2023/02/05 16:28:49;;;;;;;21.40;9.40;;;1.00;99.90;;;;;;8255945;28;20080;-78
2023/02/05 16:32:52;;;;;;;28.45;9.77;;;0.90;99.90;;;;;;8242547;28;20026;-78
2023/02/05 16:36:56;;;;;;;23.70;12.13;;;0.90;99.90;;;;;;8252140;28;20046;-77
2023/02/05 16:41:07;;;;;;;18.65;9.85;;;1.00;99.90;;;;;;8253441;28;20422;-75
2023/02/05 16:45:23;;;;;;;16.33;8.60;;;1.50;99.90;;;;;;8243416;28;20506;-79
2023/02/05 16:49:26;;;;;;;17.38;8.88;;;1.40;99.90;;;;;;8259513;23;20038;-77
2023/02/05 16:53:33;;;;;;;15.82;7.88;;;1.20;99.90;;;;;;8272391;28;20513;-78
2023/02/05 16:57:37;;;;;;;15.02;7.45;;;1.10;99.90;;;;;;8287012;28;20049;-79
2023/02/05 17:01:41;;;;;;;11.75;6.00;;;1.40;99.90;;;;;;8269800;28;20023;-79
2023/02/05 17:05:43;;;;;;;14.50;6.43;;;1.60;99.90;;;;;;8280964;28;20073;-80
2023/02/05 17:09:44;;;;;;;7.90;4.40;;;1.40;99.90;;;;;;8277966;28;20125;-80
2023/02/05 17:13:45;;;;;;;14.80;6.43;;;1.40;99.90;;;;;;8271043;28;20030;-80
2023/02/05 17:17:54;;;;;;;10.02;5.60;;;1.30;99.90;;;;;;8270455;28;20037;-78
2023/02/05 17:22:13;;;;;;;6.10;4.68;;;1.10;99.90;;;;;;8270898;28;20105;-78
2023/02/05 17:26:14;;;;;;;8.35;4.68;;;1.20;99.90;;;;;;8270352;28;20050;-77
2023/02/05 17:30:17;;;;;;;11.10;5.40;;;1.20;99.90;;;;;;8266680;28;20031;-77
2023/02/05 17:34:18;;;;;;;7.68;5.03;;;1.20;99.90;;;;;;8257985;28;20035;-78
2023/02/05 17:38:19;;;;;;;9.95;5.05;;;1.00;99.90;;;;;;8246613;28;20659;-78
2023/02/05 17:42:23;;;;;;;8.75;4.75;;;0.90;99.90;;;;;;8251870;28;20022;-78
2023/02/05 17:46:23;;;;;;;6.35;4.00;;;1.00;99.90;;;;;;8262600;28;20084;-77
2023/02/05 17:50:24;;;;;;;6.68;4.25;;;1.30;99.90;;;;;;8250043;28;20031;-77
2023/02/05 17:54:25;;;;;;;7.90;4.80;;;1.70;99.90;;;;;;8245544;28;20163;-78
2023/02/05 17:58:25;;;;;;;7.60;4.20;;;1.50;99.90;;;;;;8243772;28;20022;-78
2023/02/05 18:02:26;;;;;;;7.05;4.00;;;1.30;99.90;;;;;;8250707;28;20766;-78
2023/02/05 18:06:26;;;;;;;8.85;4.70;;;1.30;99.90;;;;;;8250899;28;20523;-78
2023/02/05 18:10:31;;;;;;;6.13;3.45;;;1.30;99.90;;;;;;8255298;28;20121;-78
2023/02/05 18:14:31;;;;;;;6.75;3.85;;;1.40;99.90;;;;;;8250397;28;20031;-76
2023/02/05 18:18:35;;;;;;;7.10;4.05;;;1.80;99.90;;;;;;8251778;28;20122;-77
2023/02/05 18:22:35;;;;;;;11.90;5.18;;;1.80;99.90;;;;;;8256472;28;20041;-77
2023/02/05 18:26:37;;;;;;;10.15;4.68;;;1.70;99.90;;;;;;8255120;28;20031;-77
2023/02/05 18:30:38;;;;;;;8.38;4.75;;;1.60;99.90;;;;;;8257414;28;20069;-78
2023/02/05 18:34:39;;;;;;;7.05;4.35;;;1.60;99.90;;;;;;8263851;28;20033;-77
2023/02/05 18:38:43;;;;;;;8.48;4.20;;;1.30;99.90;;;;;;8262021;28;20034;-78
2023/02/05 18:42:45;;;;;;;6.55;3.80;;;1.10;99.90;;;;;;8272139;28;20486;-77
2023/02/05 18:46:46;;;;;;;5.75;3.90;;;1.00;99.90;;;;;;8265283;28;20399;-78
2023/02/05 18:50:47;;;;;;;9.38;4.60;;;0.90;99.90;;;;;;8265132;28;20030;-78
2023/02/05 18:54:47;;;;;;;9.35;4.05;;;0.90;99.90;;;;;;8262684;28;20022;-77
2023/02/05 18:58:55;;;;;;;9.80;4.78;;;1.40;99.90;;;;;;8260775;28;20030;-78
2023/02/05 19:02:56;;;;;;;6.68;4.50;;;1.50;99.90;;;;;;8258973;28;20030;-78
2023/02/05 19:06:57;;;;;;;10.23;5.22;;;1.40;99.90;;;;;;8261760;28;20104;-78
2023/02/05 19:10:58;;;;;;;9.77;5.03;;;1.10;99.90;;;;;;8256526;28;21260;-78
2023/02/05 19:14:58;;;;;;;6.50;4.05;;;1.00;99.90;;;;;;8255121;28;20026;-78
2023/02/05 19:18:59;;;;;;;8.45;4.55;;;1.00;99.90;;;;;;8263356;28;20065;-78
2023/02/05 19:23:00;;;;;;;9.50;4.57;;;1.10;99.90;;;;;;8265391;28;20034;-77
2023/02/05 19:27:00;;;;;;;7.38;4.15;;;1.20;99.90;;;;;;8265050;28;20034;-76
2023/02/05 19:31:06;;;;;;;7.80;4.43;;;1.30;99.90;;;;;;8270916;28;20080;-78
2023/02/05 19:35:07;;;;;;;8.75;5.00;;;1.20;99.90;;;;;;8267753;28;20026;-77
2023/02/05 19:39:11;;;;;;;7.85;4.72;;;1.30;99.90;;;;;;8267355;28;20422;-78
2023/02/05 19:43:16;;;;;;;7.50;4.05;;;1.20;99.90;;;;;;8275196;28;20026;-78
2023/02/05 19:47:16;;;;;;;8.43;4.82;;;1.60;99.90;;;;;;8278182;28;20026;-78
2023/02/05 19:51:18;;;;;;;6.43;4.18;;;1.70;99.90;;;;;;8277357;28;20049;-78
2023/02/05 19:55:18;;;;;;;8.98;4.70;;;1.80;99.90;;;;;;8279036;28;20022;-78
2023/02/05 19:59:19;;;;;;;9.38;4.97;;;1.70;99.90;;;;;;8277517;28;20080;-78
2023/02/05 20:03:20;;;;;;;6.82;3.97;;;1.70;99.90;;;;;;8265402;28;20164;-78
2023/02/05 20:07:21;;;;;;;14.60;5.60;;;1.60;99.90;;;;;;8278886;28;20096;-78
2023/02/05 20:11:21;;;;;;;12.57;6.63;;;1.60;99.90;;;;;;8281515;28;20029;-78
2023/02/05 20:15:22;;;;;;;6.30;3.63;;;1.50;99.90;;;;;;8271803;28;20026;-78
2023/02/05 20:19:22;;;;;;;2.65;1.83;;;1.50;99.90;;;;;;8278542;28;20032;-78
2023/02/05 20:23:24;;;;;;;12.75;6.28;;;1.40;99.90;;;;;;8271775;28;20026;-78
2023/02/05 20:27:25;;;;;;;10.07;4.15;;;1.30;99.90;;;;;;8284782;28;20022;-78
2023/02/05 20:31:33;;;;;;;2.55;2.15;;;1.30;99.90;;;;;;8262219;28;20758;-77
2023/02/05 20:35:34;;;;;;;7.93;4.95;;;1.20;99.90;;;;;;8267816;28;20030;-78
2023/02/05 20:39:40;;;;;;;6.07;3.25;;;1.10;99.90;;;;;;8272601;28;20088;-76
2023/02/05 20:43:41;;;;;;;3.58;2.50;;;1.10;99.90;;;;;;8282330;28;20021;-78
2023/02/05 20:47:44;;;;;;;12.63;7.00;;;1.00;99.90;;;;;;8273979;28;20509;-78
2023/02/05 20:51:44;;;;;;;8.25;5.15;;;1.00;99.90;;;;;;8274130;28;20109;-78
2023/02/05 20:55:45;;;;;;;12.10;5.50;;;1.10;99.90;;;;;;8279720;28;20022;-78
2023/02/05 20:59:46;;;;;;;4.55;1.48;;;1.20;99.90;;;;;;8268571;28;20113;-78
2023/02/05 21:03:50;;;;;;;2.13;1.60;;;1.10;99.90;;;;;;8263067;28;20034;-78
2023/02/05 21:07:52;;;;;;;10.93;6.18;;;1.10;99.90;;;;;;8267407;28;20106;-78
2023/02/05 21:11:54;;;;;;;9.77;5.40;;;1.20;99.90;;;;;;8269336;28;20194;-78
2023/02/05 21:15:57;;;;;;;4.53;3.05;;;1.10;99.90;;;;;;8276400;28;20023;-78
2023/02/05 21:19:57;;;;;;;14.50;6.97;;;1.10;99.90;;;;;;8268069;28;20049;-78
2023/02/05 21:24:00;;;;;;;9.60;4.35;;;1.00;99.90;;;;;;8275024;28;20053;-78
2023/02/05 21:28:01;;;;;;;7.60;4.72;;;1.00;99.90;;;;;;8269720;28;20037;-78
2023/02/05 21:32:02;;;;;;;12.23;5.47;;;1.00;99.90;;;;;;8279109;28;20039;-78
2023/02/05 21:36:04;;;;;;;6.25;3.97;;;1.00;99.90;;;;;;8278780;28;20031;-76
2023/02/05 21:40:05;;;;;;;10.02;5.43;;;1.00;99.90;;;;;;8272596;28;20026;-77